Hillandale, Maryland
Current Conditions -  °F | °C
As of 6:10 PM on Thursday 27 Nov 2014 (Local Time) from KCGS Reporting Station
Scattered Clouds Scattered Clouds  
Wind Chill: 35°   Ceiling: Unl
Heat Index: 39°   Visibility: 10mi
Dew Point: 30°   Wind: 6mph
Humidity: 70%   Direction: 310°NW
Pressure: 30.11"   Gusts: NA
Location:  39.0169°N, 76.9848°W
Report Text: KCGS 272310Z AUTO 31005KT 10SM SCT070 04/M01 A3011 RMK AO1
Loading
Personal Weather Stations






























Interactive Weather Map New forecast layout! Learn more

10-Day Weather Forecast

Advertisements
Track Severe Weather on mobile